sensor_id;sensor_type;location;lat;lon;timestamp;P1;durP1;ratioP1;P2;durP2;ratioP2
61505;SDS011;47366;51.916;4.574;2023-05-07T04:25:06;5.57;;;3.67;;
61505;SDS011;47366;51.916;4.574;2023-05-07T04:27:34;7.65;;;3.83;;
61505;SDS011;47366;51.916;4.574;2023-05-07T04:29:59;5.93;;;3.72;;
61505;SDS011;47366;51.916;4.574;2023-05-07T04:32:25;6.13;;;3.78;;
61505;SDS011;47366;51.916;4.574;2023-05-07T04:34:51;7.22;;;4.20;;
61505;SDS011;47366;51.916;4.574;2023-05-07T04:37:16;5.97;;;3.92;;
61505;SDS011;47366;51.916;4.574;2023-05-07T04:39:42;6.80;;;3.25;;
61505;SDS011;47366;51.916;4.574;2023-05-07T04:42:07;6.35;;;3.92;;
61505;SDS011;47366;51.916;4.574;2023-05-07T04:44:34;5.30;;;3.50;;
61505;SDS011;47366;51.916;4.574;2023-05-07T04:47:00;8.45;;;3.78;;
61505;SDS011;47366;51.916;4.574;2023-05-07T04:49:25;6.22;;;3.75;;
61505;SDS011;47366;51.916;4.574;2023-05-07T04:51:50;5.50;;;3.35;;
61505;SDS011;47366;51.916;4.574;2023-05-07T04:54:16;5.82;;;3.47;;
61505;SDS011;47366;51.916;4.574;2023-05-07T04:56:41;5.22;;;3.78;;
61505;SDS011;47366;51.916;4.574;2023-05-07T04:59:06;5.47;;;3.85;;
61505;SDS011;47366;51.916;4.574;2023-05-07T05:01:32;6.50;;;3.63;;
61505;SDS011;47366;51.916;4.574;2023-05-07T05:03:57;6.30;;;3.92;;
61505;SDS011;47366;51.916;4.574;2023-05-07T05:06:22;5.03;;;3.20;;
61505;SDS011;47366;51.916;4.574;2023-05-07T05:08:48;5.00;;;3.60;;
61505;SDS011;47366;51.916;4.574;2023-05-07T05:11:13;6.65;;;3.78;;
61505;SDS011;47366;51.916;4.574;2023-05-07T05:13:39;5.53;;;3.55;;
61505;SDS011;47366;51.916;4.574;2023-05-07T05:16:05;6.75;;;3.58;;
61505;SDS011;47366;51.916;4.574;2023-05-07T05:18:31;5.30;;;3.55;;
61505;SDS011;47366;51.916;4.574;2023-05-07T05:20:56;8.38;;;3.95;;
61505;SDS011;47366;51.916;4.574;2023-05-07T05:23:21;8.52;;;4.22;;
61505;SDS011;47366;51.916;4.574;2023-05-07T05:25:46;5.43;;;3.80;;
61505;SDS011;47366;51.916;4.574;2023-05-07T05:28:12;7.65;;;3.88;;
61505;SDS011;47366;51.916;4.574;2023-05-07T05:30:37;6.88;;;4.00;;
61505;SDS011;47366;51.916;4.574;2023-05-07T05:33:03;5.43;;;3.67;;
61505;SDS011;47366;51.916;4.574;2023-05-07T05:35:29;7.90;;;3.90;;
61505;SDS011;47366;51.916;4.574;2023-05-07T05:37:54;7.57;;;3.67;;
61505;SDS011;47366;51.916;4.574;2023-05-07T05:40:20;8.63;;;3.92;;
61505;SDS011;47366;51.916;4.574;2023-05-07T05:42:45;5.95;;;3.72;;
61505;SDS011;47366;51.916;4.574;2023-05-07T05:45:10;5.57;;;3.75;;
61505;SDS011;47366;51.916;4.574;2023-05-07T05:47:36;6.88;;;3.95;;
61505;SDS011;47366;51.916;4.574;2023-05-07T05:50:03;6.68;;;3.95;;
61505;SDS011;47366;51.916;4.574;2023-05-07T05:52:29;5.50;;;3.55;;
61505;SDS011;47366;51.916;4.574;2023-05-07T05:54:55;5.43;;;3.60;;
61505;SDS011;47366;51.916;4.574;2023-05-07T05:57:20;4.70;;;3.20;;
61505;SDS011;47366;51.916;4.574;2023-05-07T05:59:46;5.13;;;3.28;;
61505;SDS011;47366;51.916;4.574;2023-05-07T06:02:12;5.95;;;4.25;;
61505;SDS011;47366;51.916;4.574;2023-05-07T06:04:37;7.43;;;4.32;;
61505;SDS011;47366;51.916;4.574;2023-05-07T06:07:02;6.45;;;4.07;;
61505;SDS011;47366;51.916;4.574;2023-05-07T06:09:28;9.35;;;5.50;;
61505;SDS011;47366;51.916;4.574;2023-05-07T06:11:53;5.80;;;4.05;;
61505;SDS011;47366;51.916;4.574;2023-05-07T06:14:18;6.40;;;3.92;;
61505;SDS011;47366;51.916;4.574;2023-05-07T06:16:44;5.97;;;3.85;;
61505;SDS011;47366;51.916;4.574;2023-05-07T06:19:09;8.00;;;5.10;;
61505;SDS011;47366;51.916;4.574;2023-05-07T06:21:34;7.20;;;4.60;;
61505;SDS011;47366;51.916;4.574;2023-05-07T06:24:00;7.15;;;4.45;;
61505;SDS011;47366;51.916;4.574;2023-05-07T06:26:25;6.60;;;4.28;;
61505;SDS011;47366;51.916;4.574;2023-05-07T06:28:50;7.40;;;4.43;;
61505;SDS011;47366;51.916;4.574;2023-05-07T06:31:17;6.85;;;4.38;;
61505;SDS011;47366;51.916;4.574;2023-05-07T06:33:47;7.90;;;4.68;;
61505;SDS011;47366;51.916;4.574;2023-05-07T06:36:13;6.80;;;4.63;;
61505;SDS011;47366;51.916;4.574;2023-05-07T06:38:38;8.38;;;4.43;;
61505;SDS011;47366;51.916;4.574;2023-05-07T06:41:05;5.38;;;4.10;;
61505;SDS011;47366;51.916;4.574;2023-05-07T06:43:31;8.10;;;4.68;;
61505;SDS011;47366;51.916;4.574;2023-05-07T06:45:57;6.13;;;4.28;;
61505;SDS011;47366;51.916;4.574;2023-05-07T06:48:22;7.97;;;4.40;;
61505;SDS011;47366;51.916;4.574;2023-05-07T06:50:47;8.73;;;5.20;;
61505;SDS011;47366;51.916;4.574;2023-05-07T06:53:13;10.82;;;5.53;;
61505;SDS011;47366;51.916;4.574;2023-05-07T06:55:38;7.55;;;4.88;;
61505;SDS011;47366;51.916;4.574;2023-05-07T06:58:03;8.35;;;5.05;;
61505;SDS011;47366;51.916;4.574;2023-05-07T07:00:29;6.50;;;4.97;;
61505;SDS011;47366;51.916;4.574;2023-05-07T07:02:55;8.85;;;5.55;;
61505;SDS011;47366;51.916;4.574;2023-05-07T07:05:21;10.25;;;5.75;;
61505;SDS011;47366;51.916;4.574;2023-05-07T07:07:46;11.65;;;6.20;;
61505;SDS011;47366;51.916;4.574;2023-05-07T07:10:17;9.32;;;5.47;;
61505;SDS011;47366;51.916;4.574;2023-05-07T07:12:46;8.57;;;5.13;;
61505;SDS011;47366;51.916;4.574;2023-05-07T07:15:12;6.82;;;4.78;;
61505;SDS011;47366;51.916;4.574;2023-05-07T07:17:38;8.35;;;5.53;;
61505;SDS011;47366;51.916;4.574;2023-05-07T07:20:04;9.25;;;5.13;;
61505;SDS011;47366;51.916;4.574;2023-05-07T07:22:30;9.13;;;5.25;;
61505;SDS011;47366;51.916;4.574;2023-05-07T07:24:55;9.40;;;5.55;;
61505;SDS011;47366;51.916;4.574;2023-05-07T07:27:20;8.77;;;5.57;;
61505;SDS011;47366;51.916;4.574;2023-05-07T07:29:46;10.38;;;5.45;;
61505;SDS011;47366;51.916;4.574;2023-05-07T07:32:11;7.93;;;5.38;;
61505;SDS011;47366;51.916;4.574;2023-05-07T07:34:36;8.32;;;5.22;;
61505;SDS011;47366;51.916;4.574;2023-05-07T07:37:01;9.60;;;5.93;;
61505;SDS011;47366;51.916;4.574;2023-05-07T07:39:33;10.68;;;6.05;;
61505;SDS011;47366;51.916;4.574;2023-05-07T07:41:59;8.52;;;5.45;;
61505;SDS011;47366;51.916;4.574;2023-05-07T07:44:25;12.70;;;6.35;;
61505;SDS011;47366;51.916;4.574;2023-05-07T07:46:50;7.93;;;5.53;;
61505;SDS011;47366;51.916;4.574;2023-05-07T07:49:16;9.65;;;5.47;;
61505;SDS011;47366;51.916;4.574;2023-05-07T07:51:42;9.10;;;6.57;;
61505;SDS011;47366;51.916;4.574;2023-05-07T07:54:07;8.77;;;5.82;;
61505;SDS011;47366;51.916;4.574;2023-05-07T07:56:33;9.90;;;5.65;;
61505;SDS011;47366;51.916;4.574;2023-05-07T07:58:59;11.07;;;6.25;;
61505;SDS011;47366;51.916;4.574;2023-05-07T08:01:24;11.30;;;6.03;;
61505;SDS011;47366;51.916;4.574;2023-05-07T08:03:49;9.02;;;6.10;;
61505;SDS011;47366;51.916;4.574;2023-05-07T08:06:15;13.45;;;6.40;;
61505;SDS011;47366;51.916;4.574;2023-05-07T08:08:40;9.52;;;6.35;;
61505;SDS011;47366;51.916;4.574;2023-05-07T08:11:06;11.18;;;6.90;;
61505;SDS011;47366;51.916;4.574;2023-05-07T08:13:31;9.50;;;6.32;;
61505;SDS011;47366;51.916;4.574;2023-05-07T08:15:56;12.00;;;7.22;;
61505;SDS011;47366;51.916;4.574;2023-05-07T08:18:22;12.95;;;7.32;;
61505;SDS011;47366;51.916;4.574;2023-05-07T08:20:49;9.55;;;6.07;;
61505;SDS011;47366;51.916;4.574;2023-05-07T08:23:15;13.00;;;7.65;;
61505;SDS011;47366;51.916;4.574;2023-05-07T08:25:40;13.43;;;7.75;;
61505;SDS011;47366;51.916;4.574;2023-05-07T08:28:07;11.93;;;7.72;;
61505;SDS011;47366;51.916;4.574;2023-05-07T08:30:33;18.20;;;7.18;;
61505;SDS011;47366;51.916;4.574;2023-05-07T08:32:58;10.85;;;7.25;;
61505;SDS011;47366;51.916;4.574;2023-05-07T08:35:23;9.93;;;6.57;;
61505;SDS011;47366;51.916;4.574;2023-05-07T08:37:50;9.77;;;6.55;;
61505;SDS011;47366;51.916;4.574;2023-05-07T08:40:15;10.93;;;6.82;;
61505;SDS011;47366;51.916;4.574;2023-05-07T08:42:41;10.20;;;6.97;;
61505;SDS011;47366;51.916;4.574;2023-05-07T08:45:09;13.60;;;6.95;;
61505;SDS011;47366;51.916;4.574;2023-05-07T08:47:44;10.88;;;6.88;;
61505;SDS011;47366;51.916;4.574;2023-05-07T08:50:15;9.38;;;5.82;;
61505;SDS011;47366;51.916;4.574;2023-05-07T08:52:41;10.80;;;5.97;;
61505;SDS011;47366;51.916;4.574;2023-05-07T08:55:06;10.57;;;6.22;;
61505;SDS011;47366;51.916;4.574;2023-05-07T08:57:32;7.20;;;5.18;;
61505;SDS011;47366;51.916;4.574;2023-05-07T08:59:58;7.57;;;4.93;;
61505;SDS011;47366;51.916;4.574;2023-05-07T09:02:23;11.23;;;5.90;;
61505;SDS011;47366;51.916;4.574;2023-05-07T09:04:48;12.27;;;5.63;;
61505;SDS011;47366;51.916;4.574;2023-05-07T09:07:14;8.88;;;5.78;;
61505;SDS011;47366;51.916;4.574;2023-05-07T09:09:39;10.55;;;6.50;;
61505;SDS011;47366;51.916;4.574;2023-05-07T09:12:05;8.43;;;5.40;;
61505;SDS011;47366;51.916;4.574;2023-05-07T09:14:30;9.90;;;6.07;;
61505;SDS011;47366;51.916;4.574;2023-05-07T09:16:56;6.82;;;5.18;;
61505;SDS011;47366;51.916;4.574;2023-05-07T09:19:22;8.48;;;5.93;;
61505;SDS011;47366;51.916;4.574;2023-05-07T09:21:48;9.52;;;5.35;;
61505;SDS011;47366;51.916;4.574;2023-05-07T09:24:15;7.72;;;4.53;;
61505;SDS011;47366;51.916;4.574;2023-05-07T09:26:41;8.57;;;5.22;;
61505;SDS011;47366;51.916;4.574;2023-05-07T09:29:07;9.57;;;5.28;;
61505;SDS011;47366;51.916;4.574;2023-05-07T09:31:38;8.48;;;5.28;;
61505;SDS011;47366;51.916;4.574;2023-05-07T09:34:04;10.65;;;5.90;;
61505;SDS011;47366;51.916;4.574;2023-05-07T09:36:31;7.80;;;4.90;;
61505;SDS011;47366;51.916;4.574;2023-05-07T09:38:58;6.60;;;4.20;;
61505;SDS011;47366;51.916;4.574;2023-05-07T09:41:24;7.82;;;4.75;;
61505;SDS011;47366;51.916;4.574;2023-05-07T09:43:54;6.63;;;4.10;;
61505;SDS011;47366;51.916;4.574;2023-05-07T09:46:19;7.35;;;4.65;;
61505;SDS011;47366;51.916;4.574;2023-05-07T09:48:50;7.22;;;4.28;;
61505;SDS011;47366;51.916;4.574;2023-05-07T09:51:22;6.70;;;4.32;;
61505;SDS011;47366;51.916;4.574;2023-05-07T09:53:53;7.53;;;4.40;;
61505;SDS011;47366;51.916;4.574;2023-05-07T09:56:19;7.80;;;4.00;;
61505;SDS011;47366;51.916;4.574;2023-05-07T09:58:45;6.05;;;4.00;;
61505;SDS011;47366;51.916;4.574;2023-05-07T10:01:12;7.13;;;4.13;;
61505;SDS011;47366;51.916;4.574;2023-05-07T10:03:39;7.00;;;4.28;;
61505;SDS011;47366;51.916;4.574;2023-05-07T10:06:07;7.05;;;4.25;;
61505;SDS011;47366;51.916;4.574;2023-05-07T10:08:33;5.65;;;3.80;;
61505;SDS011;47366;51.916;4.574;2023-05-07T10:11:00;5.55;;;3.28;;
61505;SDS011;47366;51.916;4.574;2023-05-07T10:13:26;5.35;;;3.25;;
61505;SDS011;47366;51.916;4.574;2023-05-07T10:15:52;9.57;;;3.05;;
61505;SDS011;47366;51.916;4.574;2023-05-07T10:18:19;5.53;;;2.95;;
61505;SDS011;47366;51.916;4.574;2023-05-07T10:20:47;4.63;;;3.13;;
61505;SDS011;47366;51.916;4.574;2023-05-07T10:23:14;6.38;;;3.33;;
61505;SDS011;47366;51.916;4.574;2023-05-07T10:25:48;7.60;;;3.70;;
61505;SDS011;47366;51.916;4.574;2023-05-07T10:28:13;6.88;;;4.35;;
61505;SDS011;47366;51.916;4.574;2023-05-07T10:33:15;5.68;;;3.95;;
61505;SDS011;47366;51.916;4.574;2023-05-07T10:35:44;7.82;;;4.28;;
61505;SDS011;47366;51.916;4.574;2023-05-07T10:38:11;5.28;;;3.70;;
61505;SDS011;47366;51.916;4.574;2023-05-07T10:40:37;7.28;;;3.92;;
61505;SDS011;47366;51.916;4.574;2023-05-07T10:43:03;7.65;;;3.78;;
61505;SDS011;47366;51.916;4.574;2023-05-07T10:45:30;7.95;;;3.65;;
61505;SDS011;47366;51.916;4.574;2023-05-07T10:48:09;7.10;;;3.30;;
61505;SDS011;47366;51.916;4.574;2023-05-07T10:50:35;5.82;;;3.78;;
61505;SDS011;47366;51.916;4.574;2023-05-07T10:53:19;7.43;;;3.60;;
61505;SDS011;47366;51.916;4.574;2023-05-07T10:55:47;7.00;;;3.85;;
61505;SDS011;47366;51.916;4.574;2023-05-07T10:58:22;6.03;;;3.35;;
61505;SDS011;47366;51.916;4.574;2023-05-07T11:00:59;5.70;;;3.08;;
61505;SDS011;47366;51.916;4.574;2023-05-07T11:03:26;7.00;;;3.58;;
61505;SDS011;47366;51.916;4.574;2023-05-07T11:08:56;6.38;;;3.50;;
61505;SDS011;47366;51.916;4.574;2023-05-07T11:14:09;8.55;;;3.95;;
61505;SDS011;47366;51.916;4.574;2023-05-07T11:16:34;4.13;;;3.03;;
61505;SDS011;47366;51.916;4.574;2023-05-07T11:19:01;9.40;;;4.07;;
61505;SDS011;47366;51.916;4.574;2023-05-07T11:24:06;5.63;;;3.17;;
61505;SDS011;47366;51.916;4.574;2023-05-07T11:26:42;6.40;;;3.60;;
61505;SDS011;47366;51.916;4.574;2023-05-07T11:29:12;5.25;;;3.22;;
61505;SDS011;47366;51.916;4.574;2023-05-07T11:31:38;8.10;;;3.13;;
61505;SDS011;47366;51.916;4.574;2023-05-07T11:34:04;5.00;;;2.90;;
61505;SDS011;47366;51.916;4.574;2023-05-07T11:36:31;6.00;;;3.08;;
61505;SDS011;47366;51.916;4.574;2023-05-07T11:38:57;8.98;;;3.20;;
61505;SDS011;47366;51.916;4.574;2023-05-07T11:41:22;6.70;;;2.90;;
61505;SDS011;47366;51.916;4.574;2023-05-07T11:43:58;6.95;;;3.45;;
61505;SDS011;47366;51.916;4.574;2023-05-07T11:46:24;6.93;;;3.35;;
61505;SDS011;47366;51.916;4.574;2023-05-07T11:48:50;5.70;;;3.15;;
61505;SDS011;47366;51.916;4.574;2023-05-07T11:51:19;8.63;;;3.05;;
61505;SDS011;47366;51.916;4.574;2023-05-07T11:53:46;8.23;;;2.92;;
61505;SDS011;47366;51.916;4.574;2023-05-07T11:56:12;5.60;;;2.80;;
61505;SDS011;47366;51.916;4.574;2023-05-07T11:58:39;5.35;;;3.20;;
61505;SDS011;47366;51.916;4.574;2023-05-07T12:01:07;5.47;;;3.30;;
61505;SDS011;47366;51.916;4.574;2023-05-07T12:03:35;6.95;;;2.58;;
61505;SDS011;47366;51.916;4.574;2023-05-07T12:06:02;4.97;;;2.83;;
61505;SDS011;47366;51.916;4.574;2023-05-07T12:08:30;5.47;;;2.90;;
61505;SDS011;47366;51.916;4.574;2023-05-07T12:10:55;5.93;;;2.78;;
61505;SDS011;47366;51.916;4.574;2023-05-07T12:13:22;5.65;;;2.55;;
61505;SDS011;47366;51.916;4.574;2023-05-07T12:15:53;4.82;;;2.88;;
61505;SDS011;47366;51.916;4.574;2023-05-07T12:18:20;4.28;;;2.85;;
61505;SDS011;47366;51.916;4.574;2023-05-07T12:20:46;5.35;;;2.60;;
61505;SDS011;47366;51.916;4.574;2023-05-07T12:23:12;4.18;;;2.08;;
61505;SDS011;47366;51.916;4.574;2023-05-07T12:25:39;5.72;;;2.40;;
61505;SDS011;47366;51.916;4.574;2023-05-07T12:28:07;5.40;;;2.55;;
61505;SDS011;47366;51.916;4.574;2023-05-07T12:30:39;4.68;;;2.30;;
61505;SDS011;47366;51.916;4.574;2023-05-07T12:33:05;4.32;;;2.45;;
61505;SDS011;47366;51.916;4.574;2023-05-07T12:35:31;7.03;;;2.65;;
61505;SDS011;47366;51.916;4.574;2023-05-07T12:37:57;4.20;;;2.42;;
61505;SDS011;47366;51.916;4.574;2023-05-07T12:40:29;7.38;;;2.97;;
61505;SDS011;47366;51.916;4.574;2023-05-07T12:43:04;5.55;;;2.97;;
61505;SDS011;47366;51.916;4.574;2023-05-07T12:45:29;5.30;;;3.10;;
61505;SDS011;47366;51.916;4.574;2023-05-07T12:47:54;4.38;;;2.95;;
61505;SDS011;47366;51.916;4.574;2023-05-07T12:50:20;5.45;;;3.30;;
61505;SDS011;47366;51.916;4.574;2023-05-07T12:52:48;5.70;;;3.38;;
61505;SDS011;47366;51.916;4.574;2023-05-07T12:55:14;7.18;;;3.85;;
61505;SDS011;47366;51.916;4.574;2023-05-07T12:58:00;6.85;;;3.90;;
61505;SDS011;47366;51.916;4.574;2023-05-07T13:00:36;8.63;;;4.15;;
61505;SDS011;47366;51.916;4.574;2023-05-07T13:03:02;10.73;;;4.93;;
61505;SDS011;47366;51.916;4.574;2023-05-07T13:05:28;10.05;;;4.75;;
61505;SDS011;47366;51.916;4.574;2023-05-07T13:07:54;7.88;;;4.50;;
61505;SDS011;47366;51.916;4.574;2023-05-07T13:10:21;10.25;;;4.40;;
61505;SDS011;47366;51.916;4.574;2023-05-07T13:12:47;7.00;;;4.53;;
61505;SDS011;47366;51.916;4.574;2023-05-07T13:15:12;6.95;;;3.90;;
61505;SDS011;47366;51.916;4.574;2023-05-07T13:17:37;7.78;;;4.57;;
61505;SDS011;47366;51.916;4.574;2023-05-07T13:20:02;5.80;;;3.85;;
61505;SDS011;47366;51.916;4.574;2023-05-07T13:22:28;7.47;;;4.18;;
61505;SDS011;47366;51.916;4.574;2023-05-07T13:24:53;8.52;;;5.03;;
61505;SDS011;47366;51.916;4.574;2023-05-07T13:27:19;11.25;;;5.05;;
61505;SDS011;47366;51.916;4.574;2023-05-07T13:29:45;12.40;;;5.10;;
61505;SDS011;47366;51.916;4.574;2023-05-07T13:32:10;9.57;;;5.13;;
61505;SDS011;47366;51.916;4.574;2023-05-07T13:34:35;9.55;;;4.60;;
61505;SDS011;47366;51.916;4.574;2023-05-07T13:37:01;7.30;;;4.07;;
61505;SDS011;47366;51.916;4.574;2023-05-07T13:39:27;8.65;;;4.22;;
61505;SDS011;47366;51.916;4.574;2023-05-07T13:41:52;7.43;;;4.00;;
61505;SDS011;47366;51.916;4.574;2023-05-07T13:44:17;8.60;;;5.25;;
61505;SDS011;47366;51.916;4.574;2023-05-07T13:46:43;9.07;;;5.10;;
61505;SDS011;47366;51.916;4.574;2023-05-07T13:49:08;9.07;;;4.93;;
61505;SDS011;47366;51.916;4.574;2023-05-07T13:51:36;7.00;;;3.97;;
61505;SDS011;47366;51.916;4.574;2023-05-07T13:54:01;9.43;;;4.50;;
61505;SDS011;47366;51.916;4.574;2023-05-07T13:56:26;8.98;;;5.00;;
61505;SDS011;47366;51.916;4.574;2023-05-07T13:58:53;11.10;;;5.43;;
61505;SDS011;47366;51.916;4.574;2023-05-07T14:01:18;11.00;;;5.10;;
61505;SDS011;47366;51.916;4.574;2023-05-07T14:03:44;8.50;;;5.30;;
61505;SDS011;47366;51.916;4.574;2023-05-07T14:06:09;9.00;;;5.22;;
61505;SDS011;47366;51.916;4.574;2023-05-07T14:08:34;11.20;;;5.20;;
61505;SDS011;47366;51.916;4.574;2023-05-07T14:11:00;14.27;;;6.00;;
61505;SDS011;47366;51.916;4.574;2023-05-07T14:13:25;12.27;;;5.43;;
61505;SDS011;47366;51.916;4.574;2023-05-07T14:15:51;11.70;;;5.75;;
61505;SDS011;47366;51.916;4.574;2023-05-07T14:18:17;14.13;;;4.78;;
61505;SDS011;47366;51.916;4.574;2023-05-07T14:20:42;8.25;;;5.10;;
61505;SDS011;47366;51.916;4.574;2023-05-07T14:23:11;8.18;;;5.20;;
61505;SDS011;47366;51.916;4.574;2023-05-07T14:25:36;8.32;;;5.05;;
61505;SDS011;47366;51.916;4.574;2023-05-07T14:28:02;10.48;;;5.88;;
61505;SDS011;47366;51.916;4.574;2023-05-07T14:30:27;9.77;;;6.10;;
61505;SDS011;47366;51.916;4.574;2023-05-07T14:32:52;11.70;;;5.03;;
61505;SDS011;47366;51.916;4.574;2023-05-07T14:35:18;11.80;;;5.55;;
61505;SDS011;47366;51.916;4.574;2023-05-07T14:37:43;10.05;;;5.50;;
61505;SDS011;47366;51.916;4.574;2023-05-07T14:40:08;8.07;;;4.65;;
61505;SDS011;47366;51.916;4.574;2023-05-07T14:42:34;10.13;;;5.22;;
61505;SDS011;47366;51.916;4.574;2023-05-07T14:44:59;8.88;;;4.82;;
61505;SDS011;47366;51.916;4.574;2023-05-07T14:47:25;8.88;;;5.10;;
61505;SDS011;47366;51.916;4.574;2023-05-07T14:49:50;6.97;;;5.00;;
61505;SDS011;47366;51.916;4.574;2023-05-07T14:52:16;13.10;;;5.18;;
61505;SDS011;47366;51.916;4.574;2023-05-07T14:54:41;10.63;;;5.38;;
61505;SDS011;47366;51.916;4.574;2023-05-07T14:57:08;10.75;;;6.20;;
61505;SDS011;47366;51.916;4.574;2023-05-07T14:59:35;11.63;;;5.97;;
61505;SDS011;47366;51.916;4.574;2023-05-07T15:02:02;12.05;;;5.65;;
61505;SDS011;47366;51.916;4.574;2023-05-07T15:04:28;11.07;;;5.63;;
61505;SDS011;47366;51.916;4.574;2023-05-07T15:06:53;12.27;;;6.00;;
61505;SDS011;47366;51.916;4.574;2023-05-07T15:09:19;11.85;;;5.13;;
61505;SDS011;47366;51.916;4.574;2023-05-07T15:11:44;9.10;;;4.63;;
61505;SDS011;47366;51.916;4.574;2023-05-07T15:14:09;9.52;;;5.30;;
61505;SDS011;47366;51.916;4.574;2023-05-07T15:16:35;11.95;;;5.00;;
61505;SDS011;47366;51.916;4.574;2023-05-07T15:19:02;8.05;;;4.57;;
61505;SDS011;47366;51.916;4.574;2023-05-07T15:21:27;8.05;;;4.93;;
61505;SDS011;47366;51.916;4.574;2023-05-07T15:23:52;8.52;;;5.30;;
61505;SDS011;47366;51.916;4.574;2023-05-07T15:26:18;7.13;;;4.40;;
61505;SDS011;47366;51.916;4.574;2023-05-07T15:28:43;8.25;;;4.63;;
61505;SDS011;47366;51.916;4.574;2023-05-07T15:31:09;10.70;;;5.05;;
61505;SDS011;47366;51.916;4.574;2023-05-07T15:33:34;8.15;;;4.55;;
61505;SDS011;47366;51.916;4.574;2023-05-07T15:35:59;8.25;;;4.97;;
61505;SDS011;47366;51.916;4.574;2023-05-07T15:38:28;10.13;;;5.45;;
61505;SDS011;47366;51.916;4.574;2023-05-07T15:40:53;9.90;;;5.57;;
61505;SDS011;47366;51.916;4.574;2023-05-07T15:43:19;10.10;;;5.10;;
61505;SDS011;47366;51.916;4.574;2023-05-07T15:45:45;10.10;;;5.55;;
61505;SDS011;47366;51.916;4.574;2023-05-07T15:48:11;8.75;;;5.28;;
61505;SDS011;47366;51.916;4.574;2023-05-07T15:50:36;11.20;;;5.60;;
61505;SDS011;47366;51.916;4.574;2023-05-07T15:53:02;9.68;;;6.03;;
61505;SDS011;47366;51.916;4.574;2023-05-07T15:55:29;8.93;;;5.68;;
61505;SDS011;47366;51.916;4.574;2023-05-07T15:57:57;10.07;;;5.43;;
61505;SDS011;47366;51.916;4.574;2023-05-07T16:00:25;9.57;;;5.32;;
61505;SDS011;47366;51.916;4.574;2023-05-07T16:02:52;9.10;;;5.10;;
61505;SDS011;47366;51.916;4.574;2023-05-07T16:05:17;12.05;;;5.80;;
61505;SDS011;47366;51.916;4.574;2023-05-07T16:07:42;9.82;;;5.18;;
61505;SDS011;47366;51.916;4.574;2023-05-07T16:10:08;11.13;;;5.18;;
61505;SDS011;47366;51.916;4.574;2023-05-07T16:12:34;10.43;;;5.18;;
61505;SDS011;47366;51.916;4.574;2023-05-07T16:15:06;7.22;;;4.47;;
61505;SDS011;47366;51.916;4.574;2023-05-07T16:17:33;7.55;;;4.90;;
61505;SDS011;47366;51.916;4.574;2023-05-07T16:19:58;8.88;;;5.82;;
61505;SDS011;47366;51.916;4.574;2023-05-07T16:22:25;9.48;;;5.55;;
61505;SDS011;47366;51.916;4.574;2023-05-07T16:24:54;9.05;;;5.55;;
61505;SDS011;47366;51.916;4.574;2023-05-07T16:27:21;8.68;;;5.20;;
61505;SDS011;47366;51.916;4.574;2023-05-07T16:29:46;8.77;;;5.57;;
61505;SDS011;47366;51.916;4.574;2023-05-07T16:32:12;8.13;;;5.05;;
61505;SDS011;47366;51.916;4.574;2023-05-07T16:34:38;9.73;;;5.57;;
61505;SDS011;47366;51.916;4.574;2023-05-07T16:37:03;9.80;;;5.55;;
61505;SDS011;47366;51.916;4.574;2023-05-07T16:39:29;9.30;;;5.47;;
61505;SDS011;47366;51.916;4.574;2023-05-07T16:41:55;11.25;;;5.85;;
61505;SDS011;47366;51.916;4.574;2023-05-07T16:44:26;7.47;;;5.20;;
61505;SDS011;47366;51.916;4.574;2023-05-07T16:46:53;9.70;;;5.35;;
61505;SDS011;47366;51.916;4.574;2023-05-07T16:49:18;9.50;;;5.55;;
61505;SDS011;47366;51.916;4.574;2023-05-07T16:51:44;10.88;;;6.40;;
61505;SDS011;47366;51.916;4.574;2023-05-07T16:54:10;9.50;;;5.75;;
61505;SDS011;47366;51.916;4.574;2023-05-07T16:56:35;7.40;;;5.18;;
61505;SDS011;47366;51.916;4.574;2023-05-07T16:59:00;10.27;;;5.70;;
61505;SDS011;47366;51.916;4.574;2023-05-07T17:01:26;11.40;;;5.90;;
61505;SDS011;47366;51.916;4.574;2023-05-07T17:03:51;10.00;;;6.05;;
61505;SDS011;47366;51.916;4.574;2023-05-07T17:06:17;8.88;;;5.10;;
61505;SDS011;47366;51.916;4.574;2023-05-07T17:08:43;9.55;;;5.32;;
61505;SDS011;47366;51.916;4.574;2023-05-07T17:11:08;9.10;;;5.07;;
61505;SDS011;47366;51.916;4.574;2023-05-07T17:13:34;9.55;;;5.18;;
61505;SDS011;47366;51.916;4.574;2023-05-07T17:16:00;8.27;;;5.45;;
61505;SDS011;47366;51.916;4.574;2023-05-07T17:18:25;8.27;;;5.10;;
61505;SDS011;47366;51.916;4.574;2023-05-07T17:20:51;9.90;;;5.47;;
61505;SDS011;47366;51.916;4.574;2023-05-07T17:23:16;12.20;;;6.03;;
61505;SDS011;47366;51.916;4.574;2023-05-07T17:25:43;10.60;;;5.93;;
61505;SDS011;47366;51.916;4.574;2023-05-07T17:28:10;9.50;;;6.00;;
61505;SDS011;47366;51.916;4.574;2023-05-07T17:30:35;11.70;;;5.75;;
61505;SDS011;47366;51.916;4.574;2023-05-07T17:33:01;9.15;;;6.18;;
61505;SDS011;47366;51.916;4.574;2023-05-07T17:35:26;10.25;;;6.07;;
61505;SDS011;47366;51.916;4.574;2023-05-07T17:37:51;11.05;;;6.15;;
61505;SDS011;47366;51.916;4.574;2023-05-07T17:40:18;10.02;;;5.88;;
61505;SDS011;47366;51.916;4.574;2023-05-07T17:42:46;10.60;;;6.15;;
61505;SDS011;47366;51.916;4.574;2023-05-07T17:45:13;10.27;;;6.20;;
61505;SDS011;47366;51.916;4.574;2023-05-07T17:47:38;10.13;;;6.28;;
61505;SDS011;47366;51.916;4.574;2023-05-07T17:50:03;9.40;;;6.20;;
61505;SDS011;47366;51.916;4.574;2023-05-07T17:52:34;11.73;;;6.68;;
61505;SDS011;47366;51.916;4.574;2023-05-07T17:54:59;9.90;;;6.43;;
61505;SDS011;47366;51.916;4.574;2023-05-07T17:57:25;9.52;;;5.97;;
61505;SDS011;47366;51.916;4.574;2023-05-07T18:03:01;13.32;;;5.95;;
61505;SDS011;47366;51.916;4.574;2023-05-07T18:05:26;13.23;;;6.65;;
61505;SDS011;47366;51.916;4.574;2023-05-07T18:07:52;11.07;;;6.55;;
61505;SDS011;47366;51.916;4.574;2023-05-07T18:10:18;12.18;;;6.95;;
61505;SDS011;47366;51.916;4.574;2023-05-07T18:12:43;12.52;;;6.72;;
61505;SDS011;47366;51.916;4.574;2023-05-07T18:15:09;11.15;;;6.35;;
61505;SDS011;47366;51.916;4.574;2023-05-07T18:17:35;12.45;;;7.53;;
61505;SDS011;47366;51.916;4.574;2023-05-07T18:20:00;16.33;;;6.32;;
61505;SDS011;47366;51.916;4.574;2023-05-07T18:22:35;11.23;;;6.40;;
61505;SDS011;47366;51.916;4.574;2023-05-07T18:25:01;11.18;;;6.20;;
61505;SDS011;47366;51.916;4.574;2023-05-07T18:27:28;15.23;;;6.55;;
61505;SDS011;47366;51.916;4.574;2023-05-07T18:29:54;11.50;;;6.78;;
61505;SDS011;47366;51.916;4.574;2023-05-07T18:32:19;8.98;;;6.28;;
61505;SDS011;47366;51.916;4.574;2023-05-07T18:34:46;12.70;;;7.15;;
61505;SDS011;47366;51.916;4.574;2023-05-07T18:37:12;13.35;;;7.32;;
61505;SDS011;47366;51.916;4.574;2023-05-07T18:39:40;11.70;;;6.68;;
61505;SDS011;47366;51.916;4.574;2023-05-07T18:42:08;12.20;;;7.20;;
61505;SDS011;47366;51.916;4.574;2023-05-07T18:44:34;12.82;;;7.47;;
61505;SDS011;47366;51.916;4.574;2023-05-07T18:47:03;14.32;;;7.30;;
61505;SDS011;47366;51.916;4.574;2023-05-07T18:49:29;12.38;;;6.95;;
61505;SDS011;47366;51.916;4.574;2023-05-07T18:51:55;10.50;;;6.72;;
61505;SDS011;47366;51.916;4.574;2023-05-07T18:54:21;13.45;;;6.78;;
61505;SDS011;47366;51.916;4.574;2023-05-07T18:56:46;9.07;;;6.07;;
61505;SDS011;47366;51.916;4.574;2023-05-07T18:59:13;10.48;;;6.47;;
61505;SDS011;47366;51.916;4.574;2023-05-07T19:01:39;10.18;;;6.45;;
61505;SDS011;47366;51.916;4.574;2023-05-07T19:04:05;10.77;;;6.35;;
61505;SDS011;47366;51.916;4.574;2023-05-07T19:06:30;10.68;;;5.72;;
61505;SDS011;47366;51.916;4.574;2023-05-07T19:08:55;13.48;;;6.45;;
61505;SDS011;47366;51.916;4.574;2023-05-07T19:11:22;10.50;;;6.03;;
61505;SDS011;47366;51.916;4.574;2023-05-07T19:13:47;9.50;;;6.15;;
61505;SDS011;47366;51.916;4.574;2023-05-07T19:16:13;8.48;;;5.90;;